Time;durP1;ratioP1;P1;durP2;ratioP2;P2;SDS_P1;SDS_P2;PMS_P1;PMS_P2;Temp;Humidity;BMP_temperature;BMP_pressure;BME280_temperature;BME280_humidity;BME280_pressure;Samples;Min_cycle;Max_cycle;Signal;HPM_P1;HPM_P2
2021/03/24 00:00:47;;;;;;;65.60;9.87;;;8.80;99.90;;;;;;4962522;28;20197;-71
2021/03/24 00:03:15;;;;;;;65.23;10.17;;;8.90;99.90;;;;;;4967274;28;20554;-71
2021/03/24 00:05:45;;;;;;;14.60;3.70;;;8.80;99.90;;;;;;4961847;28;20204;-71
2021/03/24 00:08:12;;;;;;;5.23;2.60;;;8.90;99.90;;;;;;4966321;28;20280;-71
2021/03/24 00:10:40;;;;;;;2.20;1.50;;;8.90;99.90;;;;;;4966422;28;20274;-71
2021/03/24 00:13:07;;;;;;;1.60;1.50;;;8.90;99.90;;;;;;4956328;28;20276;-72
2021/03/24 00:15:35;;;;;;;1.70;1.60;;;8.90;99.90;;;;;;4958194;28;20201;-71
2021/03/24 00:18:01;;;;;;;1.40;1.30;;;8.90;99.90;;;;;;4954072;28;20621;-71
2021/03/24 00:20:32;;;;;;;2.23;1.50;;;8.90;99.90;;;;;;4960165;28;20223;-73
2021/03/24 00:22:59;;;;;;;1.63;1.53;;;8.90;99.90;;;;;;4953335;28;20193;-72
2021/03/24 00:25:26;;;;;;;1.67;1.57;;;8.90;99.90;;;;;;4962981;28;20219;-71
2021/03/24 00:27:54;;;;;;;2.17;1.73;;;8.90;99.90;;;;;;4959838;28;20630;-71
2021/03/24 00:30:26;;;;;;;2.57;1.53;;;8.80;99.90;;;;;;4954317;28;20654;-72
2021/03/24 00:32:53;;;;;;;1.83;1.57;;;8.80;99.90;;;;;;4942302;28;20220;-71
2021/03/24 00:35:20;;;;;;;1.40;1.30;;;8.80;99.90;;;;;;4949433;28;20201;-72
2021/03/24 00:37:48;;;;;;;1.43;1.33;;;8.90;99.90;;;;;;4940933;28;20317;-72
2021/03/24 00:40:18;;;;;;;1.20;1.10;;;8.80;99.90;;;;;;4944820;28;20315;-72
2021/03/24 00:42:44;;;;;;;1.30;1.20;;;8.80;99.90;;;;;;4940135;28;20333;-73
2021/03/24 00:45:13;;;;;;;1.70;1.40;;;8.90;99.90;;;;;;4942727;28;20228;-72
2021/03/24 00:47:39;;;;;;;1.70;1.60;;;8.80;99.90;;;;;;4953795;28;20235;-71
2021/03/24 00:50:07;;;;;;;1.73;1.63;;;8.80;99.90;;;;;;4959272;28;20207;-71
2021/03/24 00:52:34;;;;;;;1.50;1.40;;;8.80;99.90;;;;;;4961391;28;20189;-72
2021/03/24 00:55:01;;;;;;;2.73;1.70;;;8.80;99.90;;;;;;4964741;28;20276;-72
2021/03/24 00:57:28;;;;;;;2.27;2.00;;;8.80;99.90;;;;;;4969994;28;20740;-72
2021/03/24 00:59:55;;;;;;;3.93;2.27;;;8.80;99.90;;;;;;4956963;28;20614;-72
2021/03/24 01:02:21;;;;;;;2.90;2.07;;;8.80;99.90;;;;;;4971768;28;20223;-72
2021/03/24 01:04:48;;;;;;;2.20;2.00;;;8.80;99.90;;;;;;4966363;28;20344;-72
2021/03/24 01:07:15;;;;;;;93.53;12.57;;;8.70;99.90;;;;;;4969659;28;20204;-72
2021/03/24 01:09:42;;;;;;;87.70;13.27;;;8.70;99.90;;;;;;4961929;28;20294;-72
2021/03/24 01:12:10;;;;;;;47.33;9.50;;;8.80;99.90;;;;;;4970342;28;20203;-72
2021/03/24 01:14:37;;;;;;;52.10;9.10;;;8.80;99.90;;;;;;4965471;28;20784;-72
2021/03/24 01:17:04;;;;;;;97.53;13.30;;;8.70;99.90;;;;;;4961864;28;20284;-71
2021/03/24 01:19:31;;;;;;;32.30;5.97;;;8.70;99.90;;;;;;4960789;28;20221;-72
2021/03/24 01:21:58;;;;;;;7.53;2.93;;;8.70;99.90;;;;;;4950983;28;20223;-72
2021/03/24 01:24:24;;;;;;;3.07;2.10;;;8.80;99.90;;;;;;4959651;28;20245;-72
2021/03/24 01:26:51;;;;;;;2.40;2.20;;;8.70;99.90;;;;;;4958539;28;20196;-72
2021/03/24 01:29:18;;;;;;;2.97;2.10;;;8.70;99.90;;;;;;4954225;28;20344;-72
2021/03/24 01:31:44;;;;;;;2.90;2.10;;;8.70;99.90;;;;;;4960145;28;20276;-73
2021/03/24 01:34:11;;;;;;;2.10;1.73;;;8.70;99.90;;;;;;4958083;28;20673;-71
2021/03/24 01:36:37;;;;;;;1.70;1.60;;;8.60;99.90;;;;;;4961838;28;20236;-72
2021/03/24 01:39:05;;;;;;;1.70;1.60;;;8.60;99.90;;;;;;4950912;28;20213;-72
2021/03/24 01:41:32;;;;;;;1.67;1.57;;;8.70;99.90;;;;;;4960842;28;20204;-72
2021/03/24 01:43:58;;;;;;;1.93;1.80;;;8.70;99.90;;;;;;4957927;28;20200;-72
2021/03/24 01:46:35;;;;;;;1.80;1.70;;;8.70;99.90;;;;;;4949464;29;20280;-72
2021/03/24 01:49:08;;;;;;;1.60;1.50;;;8.70;99.90;;;;;;4940393;28;20225;-71
2021/03/24 01:51:37;;;;;;;1.60;1.50;;;8.70;99.90;;;;;;4963620;28;20239;-72
2021/03/24 01:54:07;;;;;;;1.47;1.37;;;8.70;99.90;;;;;;4947108;28;20295;-72
2021/03/24 01:56:34;;;;;;;1.90;1.60;;;8.60;99.90;;;;;;4955972;28;20216;-71
2021/03/24 01:59:01;;;;;;;1.90;1.80;;;8.70;99.90;;;;;;4970000;28;20212;-72
2021/03/24 02:01:29;;;;;;;1.57;1.47;;;8.70;99.90;;;;;;4966207;28;20930;-72
2021/03/24 02:03:56;;;;;;;1.47;1.37;;;8.60;99.90;;;;;;4945916;28;20209;-72
2021/03/24 02:06:29;;;;;;;1.87;1.67;;;8.60;99.90;;;;;;4952504;28;20253;-71
2021/03/24 02:09:03;;;;;;;1.87;1.77;;;8.60;99.90;;;;;;4954419;28;20283;-72
2021/03/24 02:11:34;;;;;;;3.40;2.17;;;8.60;99.90;;;;;;4951309;28;20729;-71
2021/03/24 02:14:09;;;;;;;2.07;1.70;;;8.60;99.90;;;;;;4966691;28;20346;-71
2021/03/24 02:16:40;;;;;;;2.47;1.60;;;8.60;99.90;;;;;;4960328;28;20196;-71
2021/03/24 02:19:21;;;;;;;1.40;1.30;;;8.60;99.90;;;;;;4964022;28;20680;-72
2021/03/24 02:21:48;;;;;;;1.50;1.40;;;8.60;99.90;;;;;;4964438;28;20676;-72
2021/03/24 02:24:29;;;;;;;1.67;1.53;;;8.60;99.90;;;;;;4948314;28;20209;-72
2021/03/24 02:27:11;;;;;;;2.33;1.60;;;8.70;99.90;;;;;;4979762;28;20208;-72
2021/03/24 02:29:40;;;;;;;1.70;1.60;;;8.60;99.90;;;;;;4956149;28;20240;-72
2021/03/24 02:32:11;;;;;;;2.40;1.27;;;8.60;99.90;;;;;;4955376;28;20196;-72
2021/03/24 02:34:39;;;;;;;1.50;1.40;;;8.60;99.90;;;;;;4949197;28;20685;-72
2021/03/24 02:37:07;;;;;;;2.23;1.70;;;8.60;99.90;;;;;;4944599;28;20320;-71
2021/03/24 02:39:34;;;;;;;1.57;1.37;;;8.60;99.90;;;;;;4955988;28;20316;-72
2021/03/24 02:42:04;;;;;;;1.57;1.47;;;8.60;99.90;;;;;;4942944;28;20216;-72
2021/03/24 02:44:33;;;;;;;1.40;1.30;;;8.60;99.90;;;;;;4939560;28;20289;-72
2021/03/24 02:47:02;;;;;;;1.47;1.37;;;8.70;99.90;;;;;;4944599;28;20644;-72
2021/03/24 02:49:29;;;;;;;1.50;1.40;;;8.70;99.90;;;;;;4954626;28;20198;-72
2021/03/24 02:51:56;;;;;;;1.43;1.33;;;8.60;99.90;;;;;;4961834;28;20233;-72
2021/03/24 02:54:27;;;;;;;1.50;1.40;;;8.70;99.90;;;;;;4959959;28;20276;-72
2021/03/24 02:56:53;;;;;;;1.27;1.27;;;8.70;99.90;;;;;;4968678;28;20197;-71
2021/03/24 02:59:20;;;;;;;1.40;1.30;;;8.70;99.90;;;;;;4964974;28;20216;-72
2021/03/24 03:01:54;;;;;;;2.40;2.17;;;8.70;99.90;;;;;;4963262;28;20564;-72
2021/03/24 03:04:25;;;;;;;1.70;1.37;;;8.70;99.90;;;;;;4967686;28;20331;-72
2021/03/24 03:06:55;;;;;;;1.70;1.60;;;8.60;99.90;;;;;;4963890;28;20235;-73
2021/03/24 03:09:29;;;;;;;1.60;1.50;;;8.60;99.90;;;;;;4965995;28;20279;-72
2021/03/24 03:12:01;;;;;;;1.50;1.40;;;8.70;99.90;;;;;;4966801;28;20218;-72
2021/03/24 03:14:35;;;;;;;1.53;1.43;;;8.60;99.90;;;;;;4963190;28;20223;-72
2021/03/24 03:17:07;;;;;;;1.50;1.40;;;8.70;99.90;;;;;;4952063;28;20298;-72
2021/03/24 03:19:37;;;;;;;2.07;1.27;;;8.70;99.90;;;;;;4964353;28;20225;-74
2021/03/24 03:22:07;;;;;;;1.23;1.13;;;8.70;99.90;;;;;;4963669;28;20237;-73
2021/03/24 03:24:38;;;;;;;1.13;1.13;;;8.70;99.90;;;;;;4957583;28;20288;-72
2021/03/24 03:27:09;;;;;;;1.10;1.00;;;8.70;99.90;;;;;;4969680;28;20220;-72
2021/03/24 03:29:35;;;;;;;1.40;1.30;;;8.70;99.90;;;;;;4958563;28;20654;-71
2021/03/24 03:32:05;;;;;;;1.53;1.43;;;8.70;99.90;;;;;;4967527;28;20188;-72
2021/03/24 03:34:34;;;;;;;1.53;1.43;;;8.70;99.90;;;;;;4957957;28;20242;-71
2021/03/24 03:37:02;;;;;;;1.40;1.30;;;8.70;99.90;;;;;;4965698;28;20283;-71
2021/03/24 03:39:29;;;;;;;2.20;1.67;;;8.70;99.90;;;;;;4959130;28;20296;-73
2021/03/24 03:41:59;;;;;;;1.87;1.50;;;8.70;99.90;;;;;;4964363;28;20232;-72
2021/03/24 03:44:27;;;;;;;2.07;1.60;;;8.70;99.90;;;;;;4958472;28;20528;-72
2021/03/24 03:46:56;;;;;;;1.33;1.23;;;8.70;99.90;;;;;;4959679;28;20653;-72
2021/03/24 03:49:23;;;;;;;1.70;1.60;;;8.70;99.90;;;;;;4973460;28;20191;-71
2021/03/24 03:51:59;;;;;;;1.93;1.70;;;8.70;99.90;;;;;;4967424;28;20575;-71
2021/03/24 03:54:33;;;;;;;1.40;1.30;;;8.70;99.90;;;;;;4961674;28;20219;-72
2021/03/24 03:57:04;;;;;;;1.60;1.30;;;8.70;99.90;;;;;;4967701;28;20247;-71
2021/03/24 03:59:37;;;;;;;1.80;1.70;;;8.70;99.90;;;;;;4968897;28;20319;-71
2021/03/24 04:02:07;;;;;;;2.07;1.80;;;8.70;99.90;;;;;;4971135;28;20207;-72
2021/03/24 04:04:39;;;;;;;1.93;1.50;;;8.60;99.90;;;;;;4968088;28;20189;-72
2021/03/24 04:07:14;;;;;;;1.67;1.57;;;8.70;99.90;;;;;;4960340;28;20279;-72
2021/03/24 04:09:41;;;;;;;1.70;1.60;;;8.70;99.90;;;;;;4963338;28;20585;-72
2021/03/24 04:12:12;;;;;;;2.73;1.40;;;8.60;99.90;;;;;;4965235;28;20228;-71
2021/03/24 04:14:41;;;;;;;1.93;1.70;;;8.70;99.90;;;;;;4962336;28;20200;-71
2021/03/24 04:17:11;;;;;;;1.90;1.40;;;8.70;99.90;;;;;;4969879;28;20278;-71
2021/03/24 04:19:43;;;;;;;1.40;1.30;;;8.70;99.90;;;;;;4963572;28;20617;-71
2021/03/24 04:22:12;;;;;;;1.30;1.20;;;8.70;99.90;;;;;;4968506;28;20252;-71
2021/03/24 04:24:42;;;;;;;1.70;1.57;;;8.70;99.90;;;;;;4960656;28;20665;-71
2021/03/24 04:27:12;;;;;;;1.87;1.67;;;8.80;99.90;;;;;;4965464;28;20288;-71
2021/03/24 04:29:43;;;;;;;2.80;2.00;;;8.80;99.90;;;;;;4962358;28;20245;-72
2021/03/24 04:32:11;;;;;;;3.10;2.43;;;8.70;99.90;;;;;;4962871;28;20756;-72
2021/03/24 04:34:39;;;;;;;2.73;2.50;;;8.70;99.90;;;;;;4961444;28;20227;-72
2021/03/24 04:37:10;;;;;;;2.37;2.17;;;8.60;99.90;;;;;;4960474;28;20663;-71
2021/03/24 04:39:41;;;;;;;2.50;2.30;;;8.60;99.90;;;;;;4958780;28;20232;-71
2021/03/24 04:42:12;;;;;;;3.83;2.60;;;8.60;99.90;;;;;;4960337;28;20224;-71
2021/03/24 04:44:41;;;;;;;2.70;2.20;;;8.50;99.90;;;;;;4960530;28;20204;-71
2021/03/24 04:47:12;;;;;;;3.00;2.53;;;8.50;99.90;;;;;;4957181;28;20200;-71
2021/03/24 04:49:45;;;;;;;3.10;2.40;;;8.50;99.90;;;;;;4972670;28;20231;-72
2021/03/24 04:52:12;;;;;;;2.83;2.63;;;8.50;99.90;;;;;;4965585;28;20260;-71
2021/03/24 04:54:43;;;;;;;2.57;2.10;;;8.40;99.90;;;;;;4962230;28;20214;-71
2021/03/24 04:57:13;;;;;;;2.53;2.30;;;8.40;99.90;;;;;;4970479;28;20291;-71
2021/03/24 04:59:43;;;;;;;4.30;2.30;;;8.40;99.90;;;;;;4965286;28;20232;-72
2021/03/24 05:02:14;;;;;;;2.27;2.00;;;8.50;99.90;;;;;;4947453;28;20207;-72
2021/03/24 05:04:46;;;;;;;2.63;2.40;;;8.50;99.90;;;;;;4966815;28;20391;-71
2021/03/24 05:07:21;;;;;;;4.60;2.50;;;8.50;99.90;;;;;;4969219;28;20714;-72
2021/03/24 05:09:48;;;;;;;2.40;2.20;;;8.50;99.90;;;;;;4963870;28;20705;-72
2021/03/24 05:12:19;;;;;;;2.27;2.03;;;8.50;99.90;;;;;;4967253;28;20308;-72
2021/03/24 05:14:53;;;;;;;1.57;1.47;;;8.50;99.90;;;;;;4964188;28;20300;-72
2021/03/24 05:17:23;;;;;;;1.70;1.60;;;8.50;99.90;;;;;;4954229;28;20210;-72
2021/03/24 05:19:51;;;;;;;1.30;1.20;;;8.60;99.90;;;;;;4959206;28;20233;-72
2021/03/24 05:22:25;;;;;;;1.73;1.60;;;8.60;99.90;;;;;;4963833;28;20554;-72
2021/03/24 05:24:57;;;;;;;2.40;2.20;;;8.60;99.90;;;;;;4959719;28;20197;-72
2021/03/24 05:27:29;;;;;;;1.97;1.70;;;8.60;99.90;;;;;;4962442;28;20198;-72
2021/03/24 05:30:04;;;;;;;1.80;1.70;;;8.60;99.90;;;;;;4963322;28;20239;-72
2021/03/24 05:32:38;;;;;;;1.77;1.63;;;8.70;99.90;;;;;;4957335;28;20224;-72
2021/03/24 05:35:24;;;;;;;1.93;1.83;;;8.70;99.90;;;;;;4962077;28;20713;-72
2021/03/24 05:37:51;;;;;;;3.87;2.00;;;8.70;99.90;;;;;;4953969;28;20235;-72
2021/03/24 05:40:49;;;;;;;1.70;1.60;;;8.70;99.90;;;;;;4955469;28;20213;-72
2021/03/24 05:43:31;;;;;;;2.73;1.70;;;8.70;99.90;;;;;;4961626;28;20299;-72
2021/03/24 05:46:05;;;;;;;2.67;2.47;;;8.70;99.90;;;;;;4952440;28;20284;-72
2021/03/24 05:49:05;;;;;;;2.97;2.00;;;8.60;99.90;;;;;;4964642;28;20529;-72
2021/03/24 05:51:43;;;;;;;6.03;2.90;;;8.70;99.90;;;;;;4897600;29;20209;-72
2021/03/24 05:54:31;;;;;;;2.90;2.60;;;8.70;99.90;;;;;;4899018;29;20846;-72
2021/03/24 05:57:25;;;;;;;3.47;2.30;;;8.60;99.90;;;;;;4908057;29;20207;-72
2021/03/24 06:00:01;;;;;;;3.37;2.67;;;8.70;99.90;;;;;;4885521;29;20621;-71
2021/03/24 06:02:38;;;;;;;4.27;2.60;;;8.70;99.90;;;;;;4875865;29;20202;-71
2021/03/24 06:05:09;;;;;;;4.90;3.30;;;8.60;99.90;;;;;;4888392;29;20215;-71
2021/03/24 06:08:19;;;;;;;3.23;2.73;;;8.60;99.90;;;;;;4889224;29;20214;-72
2021/03/24 06:11:03;;;;;;;2.70;2.27;;;8.60;99.90;;;;;;4883345;29;20338;-71
2021/03/24 06:14:21;;;;;;;2.50;2.23;;;8.60;99.90;;;;;;4897298;29;20226;-72
2021/03/24 06:17:29;;;;;;;3.30;2.30;;;8.60;99.90;;;;;;4890358;29;20299;-72
2021/03/24 06:20:02;;;;;;;2.63;2.37;;;8.70;99.90;;;;;;4886326;29;20307;-72
2021/03/24 06:22:46;;;;;;;3.83;2.57;;;8.70;99.90;;;;;;4892732;29;20238;-71
2021/03/24 06:25:28;;;;;;;4.03;2.77;;;8.70;99.90;;;;;;4909603;28;20217;-71
2021/03/24 06:28:08;;;;;;;3.33;2.60;;;8.70;99.90;;;;;;4943378;28;20292;-71
2021/03/24 06:30:43;;;;;;;2.53;2.33;;;8.70;99.90;;;;;;4950914;28;20229;-72
2021/03/24 06:33:22;;;;;;;4.83;3.07;;;8.70;99.90;;;;;;4943001;28;20284;-72
2021/03/24 06:36:10;;;;;;;2.50;2.23;;;8.70;99.90;;;;;;4942340;28;20209;-72
2021/03/24 06:38:46;;;;;;;5.47;2.93;;;8.70;99.90;;;;;;4945426;28;20219;-72
2021/03/24 06:41:44;;;;;;;3.70;2.90;;;8.70;99.90;;;;;;4938138;28;20228;-72
2021/03/24 06:44:45;;;;;;;2.93;2.63;;;8.70;99.90;;;;;;4937722;28;20288;-72
2021/03/24 06:47:24;;;;;;;3.53;2.13;;;8.70;99.90;;;;;;4955115;28;20199;-72
2021/03/24 06:49:56;;;;;;;3.73;2.57;;;8.60;99.90;;;;;;4961013;28;20226;-71
2021/03/24 06:52:57;;;;;;;2.97;2.40;;;8.70;99.90;;;;;;4962529;28;20221;-72
2021/03/24 06:56:03;;;;;;;4.07;2.20;;;8.70;99.90;;;;;;4966668;28;20200;-71
2021/03/24 06:59:07;;;;;;;5.47;3.03;;;8.80;99.90;;;;;;4958329;28;20205;-71
2021/03/24 07:01:49;;;;;;;4.80;3.17;;;8.80;99.90;;;;;;4945081;28;20300;-72
2021/03/24 07:04:53;;;;;;;4.67;3.10;;;8.80;99.90;;;;;;4966449;28;20201;-72
2021/03/24 07:07:54;;;;;;;7.17;3.57;;;8.80;99.90;;;;;;4942542;28;20220;-71
2021/03/24 07:10:35;;;;;;;4.53;3.27;;;8.80;99.90;;;;;;4957863;28;20193;-72
2021/03/24 07:13:34;;;;;;;4.97;3.40;;;8.80;99.90;;;;;;4952525;28;20822;-72
2021/03/24 07:16:13;;;;;;;4.50;3.83;;;8.80;99.90;;;;;;4881709;29;20218;-72
2021/03/24 07:18:52;;;;;;;7.57;4.27;;;8.80;99.90;;;;;;4884732;29;20550;-71
2021/03/24 07:22:02;;;;;;;6.13;4.20;;;8.80;99.90;;;;;;4893202;29;20667;-72
2021/03/24 07:25:08;;;;;;;5.83;3.80;;;8.90;99.90;;;;;;4877729;29;20306;-72
2021/03/24 07:27:58;;;;;;;5.23;3.30;;;8.90;99.90;;;;;;4823655;29;20221;-72
2021/03/24 07:30:37;;;;;;;4.43;3.37;;;9.00;99.90;;;;;;4771928;30;20636;-72
2021/03/24 07:33:09;;;;;;;6.40;3.30;;;9.20;99.90;;;;;;4766398;30;20257;-71
2021/03/24 07:35:51;;;;;;;3.13;2.80;;;9.10;99.90;;;;;;4746646;30;20817;-71
2021/03/24 07:38:40;;;;;;;5.13;3.50;;;9.10;99.90;;;;;;4748182;30;20242;-71
2021/03/24 07:41:37;;;;;;;4.73;3.53;;;9.10;99.90;;;;;;4755954;30;20707;-70
2021/03/24 07:44:15;;;;;;;8.30;3.47;;;9.20;99.90;;;;;;4751671;30;20247;-71
2021/03/24 07:47:18;;;;;;;7.80;3.70;;;9.20;99.90;;;;;;4755164;30;20411;-70
2021/03/24 07:49:59;;;;;;;5.67;3.57;;;9.20;99.90;;;;;;4700800;30;20251;-72
2021/03/24 07:52:48;;;;;;;5.47;3.40;;;9.20;99.90;;;;;;4709782;30;20300;-71
2021/03/24 07:55:19;;;;;;;3.93;3.17;;;9.20;99.90;;;;;;4743659;30;20216;-71
2021/03/24 07:57:58;;;;;;;5.83;2.83;;;9.30;99.90;;;;;;4737285;30;20248;-71
2021/03/24 08:00:29;;;;;;;3.30;2.80;;;9.30;99.90;;;;;;4750514;30;20660;-71
2021/03/24 08:03:03;;;;;;;8.30;4.47;;;9.40;99.90;;;;;;4746915;29;20291;-70
2021/03/24 08:05:43;;;;;;;4.90;3.40;;;9.50;99.90;;;;;;4806707;29;20210;-71
2021/03/24 08:08:15;;;;;;;5.37;3.67;;;9.60;99.90;;;;;;4879953;29;20211;-70
2021/03/24 08:10:53;;;;;;;7.17;3.73;;;9.60;99.90;;;;;;4875839;29;20213;-70
2021/03/24 08:13:47;;;;;;;6.97;4.10;;;9.70;99.90;;;;;;4883943;29;20698;-71
2021/03/24 08:16:34;;;;;;;8.40;3.47;;;9.70;99.90;;;;;;4901163;29;20253;-71
2021/03/24 08:19:26;;;;;;;7.20;4.27;;;9.80;99.90;;;;;;4885610;29;20314;-71
2021/03/24 08:22:18;;;;;;;7.17;4.20;;;9.80;99.90;;;;;;4883775;29;20234;-70
2021/03/24 08:24:54;;;;;;;5.20;3.90;;;9.80;99.90;;;;;;4888694;29;20843;-70
2021/03/24 08:27:25;;;;;;;6.50;3.73;;;9.90;99.90;;;;;;4944152;28;20753;-72
2021/03/24 08:30:00;;;;;;;6.37;4.20;;;10.00;99.90;;;;;;4940202;28;20240;-71
2021/03/24 08:33:07;;;;;;;5.90;3.83;;;10.00;99.90;;;;;;4952897;28;20207;-68
2021/03/24 08:36:04;;;;;;;7.80;4.20;;;10.10;99.90;;;;;;4945860;28;20285;-70
2021/03/24 08:39:01;;;;;;;7.10;4.20;;;10.10;99.90;;;;;;4944093;28;20297;-71
2021/03/24 08:42:01;;;;;;;8.83;4.70;;;10.20;99.90;;;;;;4941911;28;20223;-71
2021/03/24 08:44:36;;;;;;;6.63;3.87;;;10.30;99.90;;;;;;4937805;28;20259;-71
2021/03/24 08:47:10;;;;;;;5.53;3.37;;;10.30;99.90;;;;;;4951960;28;20195;-71
2021/03/24 08:49:41;;;;;;;5.03;3.40;;;10.50;99.90;;;;;;4946178;28;20200;-71
2021/03/24 08:52:16;;;;;;;6.97;3.93;;;10.50;99.90;;;;;;4954255;28;20197;-71
2021/03/24 08:55:09;;;;;;;6.43;3.60;;;10.60;99.90;;;;;;4947577;28;20227;-70
2021/03/24 08:57:46;;;;;;;5.37;4.10;;;10.70;99.90;;;;;;4954817;28;20635;-71
2021/03/24 09:00:30;;;;;;;7.43;4.40;;;10.70;99.90;;;;;;4943498;28;20787;-71
2021/03/24 09:03:21;;;;;;;6.67;4.07;;;10.90;99.90;;;;;;4941391;28;20318;-72
2021/03/24 09:06:00;;;;;;;5.37;3.57;;;11.00;99.90;;;;;;4943055;28;20601;-72
2021/03/24 09:08:31;;;;;;;3.57;3.10;;;11.10;99.90;;;;;;4952838;28;20235;-71
2021/03/24 09:11:22;;;;;;;4.73;3.97;;;11.20;99.90;;;;;;4943511;28;20323;-71
2021/03/24 09:14:00;;;;;;;4.77;3.70;;;11.40;99.90;;;;;;4938374;28;20312;-71
2021/03/24 09:16:53;;;;;;;34.40;8.27;;;11.40;99.90;;;;;;4949589;28;20210;-71
2021/03/24 09:19:56;;;;;;;37.37;6.70;;;11.50;99.80;;;;;;4938350;28;20222;-71
2021/03/24 09:22:38;;;;;;;9.30;4.17;;;11.70;99.60;;;;;;4941340;28;20209;-71
2021/03/24 09:25:19;;;;;;;8.87;4.73;;;11.80;99.30;;;;;;4948217;28;20207;-72
2021/03/24 09:28:30;;;;;;;6.63;3.90;;;11.90;98.90;;;;;;4935140;28;20214;-70
2021/03/24 09:31:21;;;;;;;7.37;3.63;;;12.00;98.60;;;;;;4942525;28;20330;-71
2021/03/24 09:33:52;;;;;;;7.87;3.70;;;12.00;98.60;;;;;;4940136;28;20214;-70
2021/03/24 09:36:47;;;;;;;7.67;4.07;;;12.10;98.00;;;;;;4946385;28;20207;-71
2021/03/24 09:39:20;;;;;;;7.47;3.90;;;12.10;97.80;;;;;;4935827;28;20253;-70
2021/03/24 09:41:51;;;;;;;6.13;4.23;;;12.20;97.40;;;;;;4942151;28;20757;-71
2021/03/24 09:44:25;;;;;;;6.60;4.00;;;12.30;97.20;;;;;;4945278;28;20219;-73
2021/03/24 09:46:54;;;;;;;8.50;4.47;;;12.30;96.90;;;;;;4942624;28;20692;-70
2021/03/24 09:49:27;;;;;;;7.60;5.67;;;12.40;96.50;;;;;;4940013;28;20254;-70
2021/03/24 09:52:22;;;;;;;8.07;4.70;;;12.40;96.20;;;;;;4950530;28;20693;-69
2021/03/24 09:55:14;;;;;;;10.30;5.83;;;12.40;95.90;;;;;;4952114;28;20205;-69
2021/03/24 09:57:55;;;;;;;10.00;5.70;;;12.40;95.40;;;;;;4944369;28;20293;-69
2021/03/24 10:00:25;;;;;;;14.47;6.40;;;12.40;95.10;;;;;;4939848;28;20221;-70
2021/03/24 10:02:57;;;;;;;10.33;5.90;;;12.40;94.50;;;;;;4947423;28;20207;-69
2021/03/24 10:05:30;;;;;;;10.83;6.10;;;12.30;94.20;;;;;;4941799;28;20283;-70
2021/03/24 10:08:00;;;;;;;12.50;6.43;;;12.30;93.90;;;;;;4955472;28;20225;-70
2021/03/24 10:10:31;;;;;;;14.63;8.97;;;12.30;93.50;;;;;;4949081;28;20195;-70
2021/03/24 10:13:07;;;;;;;14.67;8.43;;;12.10;92.70;;;;;;4944330;28;20353;-70
2021/03/24 10:15:40;;;;;;;11.43;6.90;;;12.10;92.80;;;;;;4934230;28;20302;-70
2021/03/24 10:18:11;;;;;;;9.63;5.83;;;12.00;93.00;;;;;;4950744;28;20236;-69
2021/03/24 10:20:41;;;;;;;9.83;6.00;;;12.00;93.20;;;;;;4935038;29;20247;-70
2021/03/24 10:23:15;;;;;;;8.07;5.77;;;12.10;93.00;;;;;;4936227;28;20284;-71
2021/03/24 10:25:45;;;;;;;12.97;7.37;;;12.10;93.00;;;;;;4941281;28;20608;-71
2021/03/24 10:28:16;;;;;;;12.00;6.90;;;12.10;92.70;;;;;;4935765;28;20214;-70
2021/03/24 10:30:54;;;;;;;10.60;6.70;;;12.10;92.60;;;;;;4946395;28;20247;-71
2021/03/24 10:33:26;;;;;;;10.83;6.30;;;12.10;92.50;;;;;;4952028;28;20213;-74
2021/03/24 10:36:04;;;;;;;12.97;7.30;;;12.20;92.20;;;;;;4951374;28;20210;-71
2021/03/24 10:38:42;;;;;;;11.93;6.53;;;12.20;91.80;;;;;;4943270;28;20739;-70
2021/03/24 10:41:18;;;;;;;15.33;6.73;;;12.30;91.80;;;;;;4941292;28;20200;-70
2021/03/24 10:43:51;;;;;;;10.17;6.03;;;12.30;91.50;;;;;;4945238;28;20244;-71
2021/03/24 10:46:26;;;;;;;30.03;9.00;;;12.40;91.40;;;;;;4943837;28;20649;-71
2021/03/24 10:48:57;;;;;;;55.37;12.10;;;12.40;91.60;;;;;;4941368;29;20198;-72
2021/03/24 10:51:37;;;;;;;14.73;6.93;;;12.40;90.90;;;;;;4958352;28;20254;-71
2021/03/24 10:54:15;;;;;;;10.97;6.63;;;12.40;90.90;;;;;;4952848;28;20936;-72
2021/03/24 10:56:52;;;;;;;8.97;6.43;;;12.40;90.80;;;;;;4944522;28;20617;-72
2021/03/24 10:59:26;;;;;;;11.87;6.37;;;12.40;90.70;;;;;;4946254;28;20316;-72
2021/03/24 11:01:59;;;;;;;12.60;7.30;;;12.40;90.80;;;;;;4943591;28;20237;-71
2021/03/24 11:04:42;;;;;;;11.60;6.43;;;12.30;90.40;;;;;;4937203;28;20279;-71
2021/03/24 11:07:13;;;;;;;11.67;6.63;;;12.30;90.50;;;;;;4946765;28;20681;-72
2021/03/24 11:09:47;;;;;;;10.03;6.40;;;12.30;90.90;;;;;;4946517;28;20199;-71
2021/03/24 11:12:17;;;;;;;13.20;7.27;;;12.20;90.50;;;;;;4943148;28;20250;-71
2021/03/24 11:15:00;;;;;;;10.43;7.00;;;12.20;90.40;;;;;;4943177;28;20198;-72
2021/03/24 11:17:33;;;;;;;11.07;7.10;;;12.10;90.40;;;;;;4936384;28;20699;-71
2021/03/24 11:20:05;;;;;;;12.70;7.33;;;12.10;90.40;;;;;;4940685;28;20241;-71
2021/03/24 11:22:51;;;;;;;12.13;7.23;;;12.20;90.20;;;;;;4944539;28;20194;-72
2021/03/24 11:25:24;;;;;;;11.53;6.87;;;12.10;90.10;;;;;;4945110;28;20612;-71
2021/03/24 11:27:54;;;;;;;15.37;7.57;;;12.20;89.70;;;;;;4946638;28;20240;-72
2021/03/24 11:30:28;;;;;;;14.80;8.17;;;12.10;89.30;;;;;;4945484;28;20233;-71
2021/03/24 11:33:14;;;;;;;9.93;6.67;;;12.10;89.10;;;;;;4947038;28;20299;-70
2021/03/24 11:35:52;;;;;;;13.70;8.23;;;12.10;90.00;;;;;;4935591;28;20211;-71
2021/03/24 11:38:41;;;;;;;13.80;7.27;;;12.00;89.10;;;;;;4939351;28;20559;-71
2021/03/24 11:41:11;;;;;;;11.53;6.30;;;12.00;89.20;;;;;;4947114;28;20616;-71
2021/03/24 11:43:40;;;;;;;11.90;6.80;;;12.00;89.30;;;;;;4945279;28;20200;-71
2021/03/24 11:46:21;;;;;;;9.43;6.40;;;12.10;89.20;;;;;;4946681;28;20192;-72
2021/03/24 11:49:16;;;;;;;9.33;5.33;;;12.10;89.10;;;;;;4942109;28;20228;-71
2021/03/24 11:51:57;;;;;;;9.47;5.53;;;12.10;89.10;;;;;;4945265;28;20208;-70
2021/03/24 11:54:33;;;;;;;12.60;6.30;;;12.20;89.30;;;;;;4950297;28;20688;-70
2021/03/24 11:57:27;;;;;;;11.93;6.23;;;12.20;89.30;;;;;;4955676;28;20202;-70
2021/03/24 12:00:11;;;;;;;13.57;7.83;;;12.30;88.90;;;;;;4862787;29;20827;-71
2021/03/24 12:02:56;;;;;;;16.40;8.50;;;12.20;88.50;;;;;;4855089;29;20675;-72
2021/03/24 12:05:28;;;;;;;12.07;7.63;;;12.10;88.40;;;;;;4844137;29;20215;-71
2021/03/24 12:08:19;;;;;;;14.60;8.53;;;12.00;88.50;;;;;;4856112;29;20214;-71
2021/03/24 12:10:59;;;;;;;11.03;7.03;;;12.00;88.50;;;;;;4862627;29;20212;-71
2021/03/24 12:13:31;;;;;;;15.03;7.47;;;12.00;89.30;;;;;;4858550;29;20321;-71
2021/03/24 12:16:05;;;;;;;11.43;7.20;;;12.00;88.70;;;;;;4862285;29;20321;-69
2021/03/24 12:18:43;;;;;;;10.57;6.70;;;12.00;88.40;;;;;;4867417;29;20224;-72
2021/03/24 12:21:26;;;;;;;11.87;6.17;;;12.00;88.20;;;;;;4853777;29;20752;-72
2021/03/24 12:23:54;;;;;;;11.50;6.23;;;12.00;88.20;;;;;;4845990;29;20697;-72
2021/03/24 12:26:25;;;;;;;7.30;5.07;;;12.00;88.00;;;;;;4859591;29;20213;-72
2021/03/24 12:28:55;;;;;;;10.90;6.63;;;12.10;88.00;;;;;;4858256;29;20629;-72
2021/03/24 12:31:23;;;;;;;6.50;4.70;;;12.10;88.00;;;;;;4854267;29;20695;-72
2021/03/24 12:33:53;;;;;;;10.83;6.30;;;12.10;88.00;;;;;;4856785;29;20301;-73
2021/03/24 12:36:23;;;;;;;7.90;5.43;;;12.10;87.70;;;;;;4884775;28;20713;-73
2021/03/24 12:38:57;;;;;;;9.10;5.27;;;12.10;87.60;;;;;;4940248;28;20232;-75
2021/03/24 12:41:36;;;;;;;9.93;5.90;;;12.10;87.50;;;;;;4941065;28;20225;-73
2021/03/24 12:44:41;;;;;;;10.63;5.80;;;12.10;87.50;;;;;;4939226;28;20202;-73
2021/03/24 12:47:25;;;;;;;10.50;6.40;;;12.00;87.30;;;;;;4848953;29;20692;-73
2021/03/24 12:50:28;;;;;;;13.23;7.63;;;12.10;87.30;;;;;;4837496;29;20293;-71
2021/03/24 12:56:41;;;;;;;9.53;5.60;;;12.10;87.30;;;;;;4861149;29;20307;-73
2021/03/24 12:59:20;;;;;;;9.50;6.07;;;12.10;87.30;;;;;;4803035;29;20202;-72
2021/03/24 13:01:52;;;;;;;15.43;7.80;;;12.10;87.10;;;;;;4806848;29;20202;-72
2021/03/24 13:04:44;;;;;;;11.10;6.63;;;12.10;86.80;;;;;;4805893;29;20214;-72
2021/03/24 13:07:42;;;;;;;12.03;6.93;;;12.10;86.70;;;;;;4799045;29;20655;-73
2021/03/24 13:10:44;;;;;;;11.97;7.00;;;12.10;86.50;;;;;;4806437;29;20626;-73
2021/03/24 13:13:39;;;;;;;10.27;6.10;;;12.10;86.50;;;;;;4804958;29;20239;-71
2021/03/24 13:16:11;;;;;;;11.03;5.97;;;12.00;86.40;;;;;;4717590;30;20246;-76
2021/03/24 13:18:44;;;;;;;10.00;6.13;;;12.10;86.40;;;;;;4724227;30;20268;-75
2021/03/24 13:21:33;;;;;;;11.10;6.73;;;12.00;86.30;;;;;;4729830;30;20635;-75
2021/03/24 13:24:39;;;;;;;11.57;6.90;;;12.10;86.30;;;;;;4773147;29;20689;-76
2021/03/24 13:27:18;;;;;;;8.40;5.70;;;12.10;86.30;;;;;;4810750;29;20258;-76
2021/03/24 13:29:49;;;;;;;16.03;7.83;;;12.10;86.20;;;;;;4807966;29;20792;-74
2021/03/24 13:32:22;;;;;;;182.27;27.03;;;12.10;86.10;;;;;;4808257;29;20388;-75
2021/03/24 13:34:55;;;;;;;42.10;11.27;;;12.00;85.90;;;;;;4808130;29;20393;-74
2021/03/24 13:37:24;;;;;;;17.80;7.47;;;12.10;86.00;;;;;;4858727;29;20312;-75
2021/03/24 13:39:53;;;;;;;11.83;6.57;;;12.10;86.00;;;;;;4855855;29;20307;-75
2021/03/24 13:42:28;;;;;;;11.77;6.30;;;12.10;85.90;;;;;;4865353;29;20633;-75